sensor_id;sensor_type;location;lat;lon;timestamp;temperature;humidity
34099;DHT22;20374;49.474;10.944;2023-04-03T00:00:09;3.30;99.90
34099;DHT22;20374;49.474;10.944;2023-04-03T00:02:35;3.40;99.90
34099;DHT22;20374;49.474;10.944;2023-04-03T00:05:01;3.40;99.90
34099;DHT22;20374;49.474;10.944;2023-04-03T00:07:27;3.20;99.90
34099;DHT22;20374;49.474;10.944;2023-04-03T00:09:53;3.30;99.90
34099;DHT22;20374;49.474;10.944;2023-04-03T00:12:19;3.30;99.90
34099;DHT22;20374;49.474;10.944;2023-04-03T00:14:45;3.30;99.90
34099;DHT22;20374;49.474;10.944;2023-04-03T00:17:11;3.30;99.90
34099;DHT22;20374;49.474;10.944;2023-04-03T00:19:37;3.30;99.90
34099;DHT22;20374;49.474;10.944;2023-04-03T00:22:02;3.20;99.90
34099;DHT22;20374;49.474;10.944;2023-04-03T00:24:28;3.20;99.90
34099;DHT22;20374;49.474;10.944;2023-04-03T00:26:54;3.20;99.90
34099;DHT22;20374;49.474;10.944;2023-04-03T00:29:20;3.10;99.90
34099;DHT22;20374;49.474;10.944;2023-04-03T00:31:46;3.10;99.90
34099;DHT22;20374;49.474;10.944;2023-04-03T00:34:12;3.00;99.90
34099;DHT22;20374;49.474;10.944;2023-04-03T00:36:38;3.10;99.90
34099;DHT22;20374;49.474;10.944;2023-04-03T00:39:04;3.10;99.90
34099;DHT22;20374;49.474;10.944;2023-04-03T00:41:30;3.10;99.90
34099;DHT22;20374;49.474;10.944;2023-04-03T00:43:56;3.10;99.90
34099;DHT22;20374;49.474;10.944;2023-04-03T00:46:22;3.00;99.90
34099;DHT22;20374;49.474;10.944;2023-04-03T00:48:48;3.00;99.90
34099;DHT22;20374;49.474;10.944;2023-04-03T00:51:22;3.00;99.90
34099;DHT22;20374;49.474;10.944;2023-04-03T00:53:59;3.00;99.90
34099;DHT22;20374;49.474;10.944;2023-04-03T00:56:27;3.00;99.90
34099;DHT22;20374;49.474;10.944;2023-04-03T00:58:58;3.00;99.90
34099;DHT22;20374;49.474;10.944;2023-04-03T01:01:27;3.00;99.90
34099;DHT22;20374;49.474;10.944;2023-04-03T01:03:54;2.90;99.90
34099;DHT22;20374;49.474;10.944;2023-04-03T01:06:26;2.90;99.90
34099;DHT22;20374;49.474;10.944;2023-04-03T01:08:53;2.90;99.90
34099;DHT22;20374;49.474;10.944;2023-04-03T01:11:19;2.90;99.90
34099;DHT22;20374;49.474;10.944;2023-04-03T01:13:47;2.90;99.90
34099;DHT22;20374;49.474;10.944;2023-04-03T01:16:15;2.90;99.90
34099;DHT22;20374;49.474;10.944;2023-04-03T01:18:41;2.90;99.90
34099;DHT22;20374;49.474;10.944;2023-04-03T01:26:12;2.80;99.90
34099;DHT22;20374;49.474;10.944;2023-04-03T01:28:38;2.80;99.90
34099;DHT22;20374;49.474;10.944;2023-04-03T01:34:02;2.90;99.90
34099;DHT22;20374;49.474;10.944;2023-04-03T01:36:31;2.90;99.90
34099;DHT22;20374;49.474;10.944;2023-04-03T01:38:59;2.80;99.90
34099;DHT22;20374;49.474;10.944;2023-04-03T01:41:26;2.80;99.90
34099;DHT22;20374;49.474;10.944;2023-04-03T01:43:59;2.70;99.90
34099;DHT22;20374;49.474;10.944;2023-04-03T01:46:25;2.80;99.90
34099;DHT22;20374;49.474;10.944;2023-04-03T01:48:51;2.80;99.90
34099;DHT22;20374;49.474;10.944;2023-04-03T01:51:17;2.70;99.90
34099;DHT22;20374;49.474;10.944;2023-04-03T01:53:43;2.70;99.90
34099;DHT22;20374;49.474;10.944;2023-04-03T01:56:09;2.70;99.90
34099;DHT22;20374;49.474;10.944;2023-04-03T01:58:35;2.60;99.90
34099;DHT22;20374;49.474;10.944;2023-04-03T02:01:01;2.60;99.90
34099;DHT22;20374;49.474;10.944;2023-04-03T02:03:28;2.60;99.90
34099;DHT22;20374;49.474;10.944;2023-04-03T02:05:54;2.50;99.90
34099;DHT22;20374;49.474;10.944;2023-04-03T02:08:20;2.40;99.90
34099;DHT22;20374;49.474;10.944;2023-04-03T02:10:48;2.50;99.90
34099;DHT22;20374;49.474;10.944;2023-04-03T02:13:15;2.40;99.90
34099;DHT22;20374;49.474;10.944;2023-04-03T02:15:41;2.40;99.90
34099;DHT22;20374;49.474;10.944;2023-04-03T02:18:07;2.40;99.90
34099;DHT22;20374;49.474;10.944;2023-04-03T02:20:33;2.40;99.90
34099;DHT22;20374;49.474;10.944;2023-04-03T02:23:00;2.30;99.90
34099;DHT22;20374;49.474;10.944;2023-04-03T02:25:26;2.30;99.90
34099;DHT22;20374;49.474;10.944;2023-04-03T02:27:52;2.20;99.90
34099;DHT22;20374;49.474;10.944;2023-04-03T02:30:18;2.20;99.90
34099;DHT22;20374;49.474;10.944;2023-04-03T02:32:44;2.10;99.90
34099;DHT22;20374;49.474;10.944;2023-04-03T02:35:11;2.10;99.90
34099;DHT22;20374;49.474;10.944;2023-04-03T02:37:38;2.10;99.90
34099;DHT22;20374;49.474;10.944;2023-04-03T02:40:06;2.10;99.90
34099;DHT22;20374;49.474;10.944;2023-04-03T02:42:32;2.10;99.90
34099;DHT22;20374;49.474;10.944;2023-04-03T02:44:58;2.10;99.90
34099;DHT22;20374;49.474;10.944;2023-04-03T02:47:27;2.00;99.90
34099;DHT22;20374;49.474;10.944;2023-04-03T02:49:53;2.00;99.90
34099;DHT22;20374;49.474;10.944;2023-04-03T02:52:20;2.00;99.90
34099;DHT22;20374;49.474;10.944;2023-04-03T02:54:47;2.00;99.90
34099;DHT22;20374;49.474;10.944;2023-04-03T02:57:14;2.00;99.90
34099;DHT22;20374;49.474;10.944;2023-04-03T02:59:40;1.90;99.90
34099;DHT22;20374;49.474;10.944;2023-04-03T03:02:08;1.90;99.90
34099;DHT22;20374;49.474;10.944;2023-04-03T03:04:34;1.80;99.90
34099;DHT22;20374;49.474;10.944;2023-04-03T03:07:01;1.80;99.90
34099;DHT22;20374;49.474;10.944;2023-04-03T03:09:28;1.80;99.90
34099;DHT22;20374;49.474;10.944;2023-04-03T03:11:56;1.80;99.90
34099;DHT22;20374;49.474;10.944;2023-04-03T03:14:22;1.70;99.90
34099;DHT22;20374;49.474;10.944;2023-04-03T03:16:48;1.80;99.90
34099;DHT22;20374;49.474;10.944;2023-04-03T03:19:14;1.70;99.90
34099;DHT22;20374;49.474;10.944;2023-04-03T03:21:40;1.70;99.90
34099;DHT22;20374;49.474;10.944;2023-04-03T03:24:06;1.60;99.90
34099;DHT22;20374;49.474;10.944;2023-04-03T03:26:32;1.70;99.90
34099;DHT22;20374;49.474;10.944;2023-04-03T03:28:58;1.70;99.90
34099;DHT22;20374;49.474;10.944;2023-04-03T03:31:25;1.60;99.90
34099;DHT22;20374;49.474;10.944;2023-04-03T03:33:51;1.70;99.90
34099;DHT22;20374;49.474;10.944;2023-04-03T03:36:18;1.70;99.90
34099;DHT22;20374;49.474;10.944;2023-04-03T03:38:44;1.70;99.90
34099;DHT22;20374;49.474;10.944;2023-04-03T03:41:10;1.70;99.90
34099;DHT22;20374;49.474;10.944;2023-04-03T03:43:36;1.70;99.90
34099;DHT22;20374;49.474;10.944;2023-04-03T03:46:04;1.80;99.90
34099;DHT22;20374;49.474;10.944;2023-04-03T03:48:30;1.80;99.90
34099;DHT22;20374;49.474;10.944;2023-04-03T03:50:56;1.90;99.90
34099;DHT22;20374;49.474;10.944;2023-04-03T03:53:26;1.80;99.90
34099;DHT22;20374;49.474;10.944;2023-04-03T03:55:55;1.90;99.90
34099;DHT22;20374;49.474;10.944;2023-04-03T03:58:24;1.80;99.90
34099;DHT22;20374;49.474;10.944;2023-04-03T04:00:50;2.00;99.90
34099;DHT22;20374;49.474;10.944;2023-04-03T04:03:17;2.00;99.90
34099;DHT22;20374;49.474;10.944;2023-04-03T04:05:45;2.00;99.90
34099;DHT22;20374;49.474;10.944;2023-04-03T04:08:11;2.10;99.90
34099;DHT22;20374;49.474;10.944;2023-04-03T04:10:38;2.10;99.90
34099;DHT22;20374;49.474;10.944;2023-04-03T04:13:05;2.10;99.90
34099;DHT22;20374;49.474;10.944;2023-04-03T04:15:31;2.10;99.90
34099;DHT22;20374;49.474;10.944;2023-04-03T04:17:57;2.10;99.90
34099;DHT22;20374;49.474;10.944;2023-04-03T04:20:24;2.20;99.90
34099;DHT22;20374;49.474;10.944;2023-04-03T04:22:53;2.20;99.90
34099;DHT22;20374;49.474;10.944;2023-04-03T04:25:20;2.20;99.90
34099;DHT22;20374;49.474;10.944;2023-04-03T04:27:46;2.20;99.90
34099;DHT22;20374;49.474;10.944;2023-04-03T04:30:14;2.20;99.90
34099;DHT22;20374;49.474;10.944;2023-04-03T04:32:41;2.20;99.90
34099;DHT22;20374;49.474;10.944;2023-04-03T04:35:07;2.20;99.90
34099;DHT22;20374;49.474;10.944;2023-04-03T04:37:37;2.20;99.90
34099;DHT22;20374;49.474;10.944;2023-04-03T04:40:03;2.20;99.90
34099;DHT22;20374;49.474;10.944;2023-04-03T04:42:29;2.20;99.90
34099;DHT22;20374;49.474;10.944;2023-04-03T04:44:55;2.20;99.90
34099;DHT22;20374;49.474;10.944;2023-04-03T04:47:21;2.20;99.90
34099;DHT22;20374;49.474;10.944;2023-04-03T04:49:48;2.10;99.90
34099;DHT22;20374;49.474;10.944;2023-04-03T04:52:14;2.00;99.90
34099;DHT22;20374;49.474;10.944;2023-04-03T04:54:41;2.00;99.90
34099;DHT22;20374;49.474;10.944;2023-04-03T04:57:07;2.00;99.90
34099;DHT22;20374;49.474;10.944;2023-04-03T04:59:34;1.90;99.90
34099;DHT22;20374;49.474;10.944;2023-04-03T05:02:01;1.90;99.90
34099;DHT22;20374;49.474;10.944;2023-04-03T05:04:27;1.80;99.90
34099;DHT22;20374;49.474;10.944;2023-04-03T05:06:59;1.80;99.90
34099;DHT22;20374;49.474;10.944;2023-04-03T05:09:28;1.70;99.90
34099;DHT22;20374;49.474;10.944;2023-04-03T05:11:54;1.80;99.90
34099;DHT22;20374;49.474;10.944;2023-04-03T05:14:24;1.80;99.90
34099;DHT22;20374;49.474;10.944;2023-04-03T05:16:50;1.80;99.90
34099;DHT22;20374;49.474;10.944;2023-04-03T05:19:21;1.80;99.90
34099;DHT22;20374;49.474;10.944;2023-04-03T05:21:48;1.80;99.90
34099;DHT22;20374;49.474;10.944;2023-04-03T05:24:16;1.80;99.90
34099;DHT22;20374;49.474;10.944;2023-04-03T05:26:43;1.90;99.90
34099;DHT22;20374;49.474;10.944;2023-04-03T05:29:11;1.80;99.90
34099;DHT22;20374;49.474;10.944;2023-04-03T05:31:37;1.90;99.90
34099;DHT22;20374;49.474;10.944;2023-04-03T05:34:05;1.90;99.90
34099;DHT22;20374;49.474;10.944;2023-04-03T05:36:34;2.00;99.90
34099;DHT22;20374;49.474;10.944;2023-04-03T05:39:04;2.00;99.90
34099;DHT22;20374;49.474;10.944;2023-04-03T05:41:31;2.10;99.90
34099;DHT22;20374;49.474;10.944;2023-04-03T05:43:56;2.10;99.90
34099;DHT22;20374;49.474;10.944;2023-04-03T05:46:25;2.20;99.90
34099;DHT22;20374;49.474;10.944;2023-04-03T05:48:55;2.20;99.90
34099;DHT22;20374;49.474;10.944;2023-04-03T05:51:29;2.30;99.90
34099;DHT22;20374;49.474;10.944;2023-04-03T05:54:26;2.30;99.90
34099;DHT22;20374;49.474;10.944;2023-04-03T05:56:57;2.40;99.90
34099;DHT22;20374;49.474;10.944;2023-04-03T05:59:24;2.40;99.90
34099;DHT22;20374;49.474;10.944;2023-04-03T06:01:52;2.40;99.90
34099;DHT22;20374;49.474;10.944;2023-04-03T06:04:18;2.50;99.90
34099;DHT22;20374;49.474;10.944;2023-04-03T06:06:46;2.60;99.90
34099;DHT22;20374;49.474;10.944;2023-04-03T06:09:14;2.60;99.90
34099;DHT22;20374;49.474;10.944;2023-04-03T06:11:41;2.60;99.90
34099;DHT22;20374;49.474;10.944;2023-04-03T06:14:08;2.60;99.90
34099;DHT22;20374;49.474;10.944;2023-04-03T06:16:34;2.60;99.90
34099;DHT22;20374;49.474;10.944;2023-04-03T06:19:01;2.70;99.90
34099;DHT22;20374;49.474;10.944;2023-04-03T06:21:27;2.70;99.90
34099;DHT22;20374;49.474;10.944;2023-04-03T06:23:53;2.70;99.90
34099;DHT22;20374;49.474;10.944;2023-04-03T06:26:19;2.70;99.90
34099;DHT22;20374;49.474;10.944;2023-04-03T06:28:46;2.70;99.90
34099;DHT22;20374;49.474;10.944;2023-04-03T06:31:12;2.80;99.90
34099;DHT22;20374;49.474;10.944;2023-04-03T06:33:38;2.80;99.90
34099;DHT22;20374;49.474;10.944;2023-04-03T06:36:05;2.90;99.90
34099;DHT22;20374;49.474;10.944;2023-04-03T06:38:32;3.00;99.90
34099;DHT22;20374;49.474;10.944;2023-04-03T06:40:58;3.00;99.90
34099;DHT22;20374;49.474;10.944;2023-04-03T06:43:24;3.10;99.90
34099;DHT22;20374;49.474;10.944;2023-04-03T06:45:50;3.20;99.90
34099;DHT22;20374;49.474;10.944;2023-04-03T06:48:16;3.30;99.90
34099;DHT22;20374;49.474;10.944;2023-04-03T06:50:42;3.30;99.90
34099;DHT22;20374;49.474;10.944;2023-04-03T06:53:09;3.50;99.90
34099;DHT22;20374;49.474;10.944;2023-04-03T06:55:35;3.50;99.90
34099;DHT22;20374;49.474;10.944;2023-04-03T06:58:02;3.60;99.90
34099;DHT22;20374;49.474;10.944;2023-04-03T07:00:29;3.60;99.90
34099;DHT22;20374;49.474;10.944;2023-04-03T07:02:56;3.60;99.90
34099;DHT22;20374;49.474;10.944;2023-04-03T07:05:24;3.70;99.90
34099;DHT22;20374;49.474;10.944;2023-04-03T07:07:50;3.80;99.90
34099;DHT22;20374;49.474;10.944;2023-04-03T07:10:17;3.80;99.90
34099;DHT22;20374;49.474;10.944;2023-04-03T07:12:43;4.00;99.90
34099;DHT22;20374;49.474;10.944;2023-04-03T07:15:09;4.10;99.90
34099;DHT22;20374;49.474;10.944;2023-04-03T07:17:35;4.20;99.90
34099;DHT22;20374;49.474;10.944;2023-04-03T07:20:03;4.20;99.90
34099;DHT22;20374;49.474;10.944;2023-04-03T07:22:31;4.30;99.90
34099;DHT22;20374;49.474;10.944;2023-04-03T07:24:57;4.60;99.90
34099;DHT22;20374;49.474;10.944;2023-04-03T07:27:24;4.50;99.90
34099;DHT22;20374;49.474;10.944;2023-04-03T07:29:51;4.70;99.90
34099;DHT22;20374;49.474;10.944;2023-04-03T07:32:17;4.80;99.90
34099;DHT22;20374;49.474;10.944;2023-04-03T07:34:43;4.90;99.90
34099;DHT22;20374;49.474;10.944;2023-04-03T07:37:09;5.00;99.90
34099;DHT22;20374;49.474;10.944;2023-04-03T07:39:35;5.00;99.90
34099;DHT22;20374;49.474;10.944;2023-04-03T07:42:02;5.00;99.90
34099;DHT22;20374;49.474;10.944;2023-04-03T07:44:28;5.00;99.90
34099;DHT22;20374;49.474;10.944;2023-04-03T07:46:54;5.00;99.90
34099;DHT22;20374;49.474;10.944;2023-04-03T07:49:21;5.10;99.90
34099;DHT22;20374;49.474;10.944;2023-04-03T07:51:50;5.10;99.90
34099;DHT22;20374;49.474;10.944;2023-04-03T07:54:17;5.20;99.90
34099;DHT22;20374;49.474;10.944;2023-04-03T07:56:42;5.30;99.90
34099;DHT22;20374;49.474;10.944;2023-04-03T07:59:09;5.30;99.90
34099;DHT22;20374;49.474;10.944;2023-04-03T08:01:37;5.30;99.90
34099;DHT22;20374;49.474;10.944;2023-04-03T08:04:03;5.50;99.90
34099;DHT22;20374;49.474;10.944;2023-04-03T08:06:31;5.60;99.90
34099;DHT22;20374;49.474;10.944;2023-04-03T08:08:58;5.60;99.90
34099;DHT22;20374;49.474;10.944;2023-04-03T08:11:24;5.60;99.90
34099;DHT22;20374;49.474;10.944;2023-04-03T08:13:52;5.60;99.90
34099;DHT22;20374;49.474;10.944;2023-04-03T08:16:21;5.70;99.90
34099;DHT22;20374;49.474;10.944;2023-04-03T08:18:48;5.70;99.90
34099;DHT22;20374;49.474;10.944;2023-04-03T08:21:14;5.80;99.90
34099;DHT22;20374;49.474;10.944;2023-04-03T08:23:48;5.80;99.90
34099;DHT22;20374;49.474;10.944;2023-04-03T08:26:17;5.80;99.90
34099;DHT22;20374;49.474;10.944;2023-04-03T08:28:43;6.00;99.90
34099;DHT22;20374;49.474;10.944;2023-04-03T08:31:14;6.20;99.30
34099;DHT22;20374;49.474;10.944;2023-04-03T08:33:41;6.30;99.20
34099;DHT22;20374;49.474;10.944;2023-04-03T08:36:16;6.50;98.50
34099;DHT22;20374;49.474;10.944;2023-04-03T08:38:42;6.70;98.00
34099;DHT22;20374;49.474;10.944;2023-04-03T08:41:20;6.60;96.00
34099;DHT22;20374;49.474;10.944;2023-04-03T08:49:24;7.90;92.50
34099;DHT22;20374;49.474;10.944;2023-04-03T08:51:53;7.70;93.10
34099;DHT22;20374;49.474;10.944;2023-04-03T08:54:30;7.80;93.90
34099;DHT22;20374;49.474;10.944;2023-04-03T08:57:00;7.40;93.30
34099;DHT22;20374;49.474;10.944;2023-04-03T08:59:34;7.00;93.20
34099;DHT22;20374;49.474;10.944;2023-04-03T09:02:04;6.90;94.00
34099;DHT22;20374;49.474;10.944;2023-04-03T09:04:38;7.40;93.50
34099;DHT22;20374;49.474;10.944;2023-04-03T09:07:12;8.60;91.10
34099;DHT22;20374;49.474;10.944;2023-04-03T09:09:41;10.10;86.20
34099;DHT22;20374;49.474;10.944;2023-04-03T09:15:01;9.70;80.30
34099;DHT22;20374;49.474;10.944;2023-04-03T09:17:41;9.00;81.60
34099;DHT22;20374;49.474;10.944;2023-04-03T09:22:43;7.60;87.30
34099;DHT22;20374;49.474;10.944;2023-04-03T09:25:15;7.30;89.80
34099;DHT22;20374;49.474;10.944;2023-04-03T09:27:42;7.10;88.30
34099;DHT22;20374;49.474;10.944;2023-04-03T09:30:16;6.90;86.00
34099;DHT22;20374;49.474;10.944;2023-04-03T09:32:45;6.80;88.50
34099;DHT22;20374;49.474;10.944;2023-04-03T09:35:23;6.70;90.10
34099;DHT22;20374;49.474;10.944;2023-04-03T09:37:51;6.60;90.90
34099;DHT22;20374;49.474;10.944;2023-04-03T09:40:33;6.60;91.30
34099;DHT22;20374;49.474;10.944;2023-04-03T09:45:48;6.50;89.60
34099;DHT22;20374;49.474;10.944;2023-04-03T09:48:17;6.40;88.20
34099;DHT22;20374;49.474;10.944;2023-04-03T09:56:18;6.00;90.60
34099;DHT22;20374;49.474;10.944;2023-04-03T09:59:06;6.20;88.80
34099;DHT22;20374;49.474;10.944;2023-04-03T10:04:13;6.30;85.10
34099;DHT22;20374;49.474;10.944;2023-04-03T10:06:51;6.30;87.50
34099;DHT22;20374;49.474;10.944;2023-04-03T10:12:07;6.70;88.70
34099;DHT22;20374;49.474;10.944;2023-04-03T10:20:26;6.10;88.10
34099;DHT22;20374;49.474;10.944;2023-04-03T10:23:14;6.50;87.30
34099;DHT22;20374;49.474;10.944;2023-04-03T10:31:14;8.90;80.70
34099;DHT22;20374;49.474;10.944;2023-04-03T10:39:35;9.20;79.00
34099;DHT22;20374;49.474;10.944;2023-04-03T10:42:25;10.10;70.60
34099;DHT22;20374;49.474;10.944;2023-04-03T10:53:24;9.10;72.00
34099;DHT22;20374;49.474;10.944;2023-04-03T10:56:27;8.70;74.70
34099;DHT22;20374;49.474;10.944;2023-04-03T11:04:39;8.00;74.40
34099;DHT22;20374;49.474;10.944;2023-04-03T11:09:44;8.40;72.70
34099;DHT22;20374;49.474;10.944;2023-04-03T11:12:13;8.50;72.40
34099;DHT22;20374;49.474;10.944;2023-04-03T11:14:40;8.40;73.00
34099;DHT22;20374;49.474;10.944;2023-04-03T11:17:21;8.30;70.10
34099;DHT22;20374;49.474;10.944;2023-04-03T11:20:16;8.10;70.20
34099;DHT22;20374;49.474;10.944;2023-04-03T11:22:47;8.00;71.50
34099;DHT22;20374;49.474;10.944;2023-04-03T11:25:23;8.10;70.80
34099;DHT22;20374;49.474;10.944;2023-04-03T11:28:12;8.10;70.50
34099;DHT22;20374;49.474;10.944;2023-04-03T11:31:08;8.70;74.00
34099;DHT22;20374;49.474;10.944;2023-04-03T11:36:47;9.90;67.20
34099;DHT22;20374;49.474;10.944;2023-04-03T11:39:25;9.00;68.80
34099;DHT22;20374;49.474;10.944;2023-04-03T11:41:52;8.40;68.80
34099;DHT22;20374;49.474;10.944;2023-04-03T11:44:37;8.10;70.00
34099;DHT22;20374;49.474;10.944;2023-04-03T11:47:06;8.40;72.30
34099;DHT22;20374;49.474;10.944;2023-04-03T11:58:03;10.70;64.40
34099;DHT22;20374;49.474;10.944;2023-04-03T12:40:57;12.00;56.70
34099;DHT22;20374;49.474;10.944;2023-04-03T12:46:03;11.90;57.30
34099;DHT22;20374;49.474;10.944;2023-04-03T12:48:32;12.50;58.10
34099;DHT22;20374;49.474;10.944;2023-04-03T12:51:02;13.10;56.00
34099;DHT22;20374;49.474;10.944;2023-04-03T12:53:32;12.60;55.10
34099;DHT22;20374;49.474;10.944;2023-04-03T12:56:23;11.70;55.20
34099;DHT22;20374;49.474;10.944;2023-04-03T12:58:51;11.00;56.80
34099;DHT22;20374;49.474;10.944;2023-04-03T13:01:21;10.80;58.00
34099;DHT22;20374;49.474;10.944;2023-04-03T13:03:53;11.50;58.90
34099;DHT22;20374;49.474;10.944;2023-04-03T13:06:36;12.30;57.50
34099;DHT22;20374;49.474;10.944;2023-04-03T13:09:03;13.00;57.40
34099;DHT22;20374;49.474;10.944;2023-04-03T13:11:40;13.50;55.80
34099;DHT22;20374;49.474;10.944;2023-04-03T13:14:33;13.90;53.90
34099;DHT22;20374;49.474;10.944;2023-04-03T13:17:23;14.90;53.20
34099;DHT22;20374;49.474;10.944;2023-04-03T13:19:49;15.30;52.40
34099;DHT22;20374;49.474;10.944;2023-04-03T13:22:33;14.30;53.00
34099;DHT22;20374;49.474;10.944;2023-04-03T13:25:07;13.70;54.40
34099;DHT22;20374;49.474;10.944;2023-04-03T13:27:34;13.60;52.40
34099;DHT22;20374;49.474;10.944;2023-04-03T13:30:02;13.50;53.00
34099;DHT22;20374;49.474;10.944;2023-04-03T13:32:31;13.90;52.60
34099;DHT22;20374;49.474;10.944;2023-04-03T13:34:58;14.30;52.50
34099;DHT22;20374;49.474;10.944;2023-04-03T13:37:28;14.90;52.70
34099;DHT22;20374;49.474;10.944;2023-04-03T13:40:12;15.50;52.40
34099;DHT22;20374;49.474;10.944;2023-04-03T13:42:40;15.10;50.40
34099;DHT22;20374;49.474;10.944;2023-04-03T13:45:23;15.40;51.60
34099;DHT22;20374;49.474;10.944;2023-04-03T13:47:51;15.20;50.50
34099;DHT22;20374;49.474;10.944;2023-04-03T13:50:23;14.50;50.70
34099;DHT22;20374;49.474;10.944;2023-04-03T13:53:08;12.90;50.20
34099;DHT22;20374;49.474;10.944;2023-04-03T13:58:31;11.80;52.40
34099;DHT22;20374;49.474;10.944;2023-04-03T14:03:58;12.50;52.40
34099;DHT22;20374;49.474;10.944;2023-04-03T14:06:24;13.00;52.70
34099;DHT22;20374;49.474;10.944;2023-04-03T14:08:51;13.60;52.50
34099;DHT22;20374;49.474;10.944;2023-04-03T14:11:24;13.30;52.20
34099;DHT22;20374;49.474;10.944;2023-04-03T14:13:53;13.10;53.50
34099;DHT22;20374;49.474;10.944;2023-04-03T14:16:23;12.60;52.20
34099;DHT22;20374;49.474;10.944;2023-04-03T14:18:49;12.50;53.00
34099;DHT22;20374;49.474;10.944;2023-04-03T14:21:18;12.00;52.60
34099;DHT22;20374;49.474;10.944;2023-04-03T14:23:44;12.20;54.30
34099;DHT22;20374;49.474;10.944;2023-04-03T14:26:19;11.70;53.30
34099;DHT22;20374;49.474;10.944;2023-04-03T14:28:48;11.50;53.80
34099;DHT22;20374;49.474;10.944;2023-04-03T14:31:15;11.60;55.30
34099;DHT22;20374;49.474;10.944;2023-04-03T14:33:41;11.70;53.80
34099;DHT22;20374;49.474;10.944;2023-04-03T14:36:27;11.40;53.70
34099;DHT22;20374;49.474;10.944;2023-04-03T14:38:54;11.70;53.80
34099;DHT22;20374;49.474;10.944;2023-04-03T14:41:23;11.70;52.20
34099;DHT22;20374;49.474;10.944;2023-04-03T14:43:50;11.70;53.20
34099;DHT22;20374;49.474;10.944;2023-04-03T14:46:28;11.70;52.60
34099;DHT22;20374;49.474;10.944;2023-04-03T14:48:55;11.20;52.00
34099;DHT22;20374;49.474;10.944;2023-04-03T14:51:21;11.30;53.50
34099;DHT22;20374;49.474;10.944;2023-04-03T14:53:47;11.40;54.30
34099;DHT22;20374;49.474;10.944;2023-04-03T14:56:26;11.50;54.20
34099;DHT22;20374;49.474;10.944;2023-04-03T14:58:58;11.60;54.70
34099;DHT22;20374;49.474;10.944;2023-04-03T15:01:25;12.20;53.60
34099;DHT22;20374;49.474;10.944;2023-04-03T15:03:51;11.90;52.60
34099;DHT22;20374;49.474;10.944;2023-04-03T15:06:17;11.50;52.60
34099;DHT22;20374;49.474;10.944;2023-04-03T15:08:45;10.80;53.60
34099;DHT22;20374;49.474;10.944;2023-04-03T15:11:13;10.20;53.90
34099;DHT22;20374;49.474;10.944;2023-04-03T15:13:39;9.90;55.70
34099;DHT22;20374;49.474;10.944;2023-04-03T15:16:17;10.10;54.50
34099;DHT22;20374;49.474;10.944;2023-04-03T15:18:45;10.10;54.60
34099;DHT22;20374;49.474;10.944;2023-04-03T15:21:12;10.10;55.10
34099;DHT22;20374;49.474;10.944;2023-04-03T15:23:38;9.80;54.70
34099;DHT22;20374;49.474;10.944;2023-04-03T15:26:04;9.60;54.80
34099;DHT22;20374;49.474;10.944;2023-04-03T15:30:59;9.50;55.90
34099;DHT22;20374;49.474;10.944;2023-04-03T15:33:26;9.30;55.60
34099;DHT22;20374;49.474;10.944;2023-04-03T15:35:52;9.00;56.20
34099;DHT22;20374;49.474;10.944;2023-04-03T15:38:18;8.50;57.20
34099;DHT22;20374;49.474;10.944;2023-04-03T15:40:45;8.30;58.50
34099;DHT22;20374;49.474;10.944;2023-04-03T15:43:13;8.30;57.90
34099;DHT22;20374;49.474;10.944;2023-04-03T15:45:40;8.30;58.20
34099;DHT22;20374;49.474;10.944;2023-04-03T15:48:06;8.30;57.70
34099;DHT22;20374;49.474;10.944;2023-04-03T15:50:33;8.30;58.30
34099;DHT22;20374;49.474;10.944;2023-04-03T15:53:01;8.20;57.80
34099;DHT22;20374;49.474;10.944;2023-04-03T15:55:30;8.20;58.00
34099;DHT22;20374;49.474;10.944;2023-04-03T15:57:57;8.10;58.70
34099;DHT22;20374;49.474;10.944;2023-04-03T16:00:24;7.90;58.40
34099;DHT22;20374;49.474;10.944;2023-04-03T16:02:55;7.70;57.90
34099;DHT22;20374;49.474;10.944;2023-04-03T16:05:22;7.60;58.60
34099;DHT22;20374;49.474;10.944;2023-04-03T16:07:48;7.50;58.20
34099;DHT22;20374;49.474;10.944;2023-04-03T16:10:16;7.40;58.50
34099;DHT22;20374;49.474;10.944;2023-04-03T16:12:43;7.30;59.30
34099;DHT22;20374;49.474;10.944;2023-04-03T16:15:09;7.30;59.20
34099;DHT22;20374;49.474;10.944;2023-04-03T16:17:37;7.20;59.40
34099;DHT22;20374;49.474;10.944;2023-04-03T16:20:05;7.10;60.80
34099;DHT22;20374;49.474;10.944;2023-04-03T16:22:31;7.20;59.80
34099;DHT22;20374;49.474;10.944;2023-04-03T16:24:58;7.00;59.50
34099;DHT22;20374;49.474;10.944;2023-04-03T16:27:24;6.90;61.60
34099;DHT22;20374;49.474;10.944;2023-04-03T16:29:54;7.00;60.90
34099;DHT22;20374;49.474;10.944;2023-04-03T16:32:21;6.80;59.50
34099;DHT22;20374;49.474;10.944;2023-04-03T16:34:48;6.70;60.30
34099;DHT22;20374;49.474;10.944;2023-04-03T16:37:15;6.80;60.80
34099;DHT22;20374;49.474;10.944;2023-04-03T16:39:40;6.70;60.00
34099;DHT22;20374;49.474;10.944;2023-04-03T16:42:06;6.70;60.80
34099;DHT22;20374;49.474;10.944;2023-04-03T16:44:35;6.60;60.20
34099;DHT22;20374;49.474;10.944;2023-04-03T16:47:01;6.50;60.40
34099;DHT22;20374;49.474;10.944;2023-04-03T16:49:27;6.40;62.20
34099;DHT22;20374;49.474;10.944;2023-04-03T16:52:02;6.40;60.60
34099;DHT22;20374;49.474;10.944;2023-04-03T16:54:29;6.30;61.90
34099;DHT22;20374;49.474;10.944;2023-04-03T16:56:56;6.20;61.60
34099;DHT22;20374;49.474;10.944;2023-04-03T16:59:22;6.10;62.80
34099;DHT22;20374;49.474;10.944;2023-04-03T17:01:48;6.00;62.20
34099;DHT22;20374;49.474;10.944;2023-04-03T17:04:14;5.90;63.40
34099;DHT22;20374;49.474;10.944;2023-04-03T17:06:40;5.80;64.30
34099;DHT22;20374;49.474;10.944;2023-04-03T17:09:07;5.70;64.00
34099;DHT22;20374;49.474;10.944;2023-04-03T17:11:34;5.70;64.60
34099;DHT22;20374;49.474;10.944;2023-04-03T17:14:00;5.70;65.40
34099;DHT22;20374;49.474;10.944;2023-04-03T17:16:27;5.60;64.50
34099;DHT22;20374;49.474;10.944;2023-04-03T17:18:54;5.40;65.70
34099;DHT22;20374;49.474;10.944;2023-04-03T17:21:20;5.50;64.60
34099;DHT22;20374;49.474;10.944;2023-04-03T17:23:50;5.40;65.20
34099;DHT22;20374;49.474;10.944;2023-04-03T17:26:18;5.40;65.90
34099;DHT22;20374;49.474;10.944;2023-04-03T17:28:44;5.20;65.90
34099;DHT22;20374;49.474;10.944;2023-04-03T17:31:10;5.20;66.10
34099;DHT22;20374;49.474;10.944;2023-04-03T17:33:36;5.10;65.70
34099;DHT22;20374;49.474;10.944;2023-04-03T17:36:04;4.90;66.30
34099;DHT22;20374;49.474;10.944;2023-04-03T17:38:31;4.80;66.30
34099;DHT22;20374;49.474;10.944;2023-04-03T17:41:04;4.70;67.00
34099;DHT22;20374;49.474;10.944;2023-04-03T17:43:30;4.60;67.80
34099;DHT22;20374;49.474;10.944;2023-04-03T17:46:00;4.60;68.30